Time;durP1;ratioP1;P1;durP2;ratioP2;P2;SDS_P1;SDS_P2;PMS_P1;PMS_P2;Temp;Humidity;BMP_temperature;BMP_pressure;BME280_temperature;BME280_humidity;BME280_pressure;Samples;Min_cycle;Max_cycle;Signal;HPM_P1;HPM_P2
2021/08/29 00:15:44;;;;;;;6.90;3.72;;;;;;;;;;4963785;28;19950;-66
2021/08/29 00:18:10;;;;;;;10.13;3.87;;;;;;;;;;4205863;34;20125;-67
2021/08/29 00:20:36;;;;;;;10.27;5.70;;;;;;;;;;4219849;34;20131;-66
2021/08/29 00:23:02;;;;;;;5.62;3.90;;;;;;;;;;4220017;34;20144;-66
2021/08/29 00:25:28;;;;;;;6.15;3.58;;;;;;;;;;4219934;34;20484;-66
2021/08/29 00:27:54;;;;;;;6.60;4.05;;;;;;;;;;4206939;34;20209;-66
2021/08/29 00:30:20;;;;;;;4.57;3.60;;;;;;;;;;4207132;34;20141;-67
2021/08/29 00:32:46;;;;;;;6.90;3.72;;;;;;;;;;4219807;34;20527;-67
2021/08/29 00:35:12;;;;;;;7.45;3.97;;;;;;;;;;4219882;34;20108;-67
2021/08/29 00:37:38;;;;;;;15.55;4.30;;;;;;;;;;4219815;34;20558;-67
2021/08/29 00:40:04;;;;;;;14.65;4.60;;;;;;;;;;4219874;34;20117;-68
2021/08/29 00:42:30;;;;;;;9.50;3.78;;;;;;;;;;4207104;34;20101;-67
2021/08/29 00:44:56;;;;;;;8.95;4.20;;;;;;;;;;4212921;34;20197;-67
2021/08/29 00:47:22;;;;;;;8.23;3.78;;;;;;;;;;4218494;34;20121;-67
2021/08/29 00:49:48;;;;;;;7.60;3.78;;;;;;;;;;4219973;34;20217;-67
2021/08/29 00:52:14;;;;;;;6.20;3.95;;;;;;;;;;4206803;34;20112;-67
2021/08/29 00:54:40;;;;;;;7.00;3.65;;;;;;;;;;4206747;34;20240;-67
2021/08/29 00:57:07;;;;;;;9.60;4.18;;;;;;;;;;4206824;34;20126;-66
2021/08/29 00:59:33;;;;;;;8.25;3.92;;;;;;;;;;4206819;34;20204;-67
2021/08/29 01:02:11;;;;;;;8.35;4.55;;;;;;;;;;4195579;34;20101;-67
2021/08/29 01:04:56;;;;;;;8.60;4.05;;;;;;;;;;4208119;34;20112;-68
2021/08/29 01:07:24;;;;;;;7.35;3.85;;;;;;;;;;4206836;34;20117;-68
2021/08/29 01:09:59;;;;;;;8.95;3.70;;;;;;;;;;4195532;34;20097;-67
2021/08/29 01:12:27;;;;;;;6.47;3.80;;;;;;;;;;4206728;34;20144;-68
2021/08/29 01:14:53;;;;;;;6.20;3.87;;;;;;;;;;4207008;34;20184;-68
2021/08/29 01:17:20;;;;;;;5.87;4.10;;;;;;;;;;4212367;33;20228;-68
2021/08/29 01:19:49;;;;;;;10.50;3.87;;;;;;;;;;4220539;33;20115;-67
2021/08/29 01:22:15;;;;;;;7.37;3.47;;;;;;;;;;4209155;33;20125;-68
2021/08/29 01:24:41;;;;;;;16.02;4.30;;;;;;;;;;4209246;33;20097;-68
2021/08/29 01:27:24;;;;;;;6.00;3.67;;;;;;;;;;4209274;33;20100;-68
2021/08/29 01:29:50;;;;;;;9.15;4.03;;;;;;;;;;4233474;33;20304;-68
2021/08/29 01:32:16;;;;;;;6.80;4.10;;;;;;;;;;4220457;33;20113;-68
2021/08/29 01:34:41;;;;;;;6.75;3.90;;;;;;;;;;4220391;33;20097;-68
2021/08/29 01:37:07;;;;;;;9.63;4.50;;;;;;;;;;4208862;33;20104;-68
2021/08/29 01:39:33;;;;;;;8.40;4.22;;;;;;;;;;4208669;33;20540;-68
2021/08/29 01:41:59;;;;;;;11.12;4.57;;;;;;;;;;4205928;33;20617;-68
2021/08/29 01:44:25;;;;;;;10.68;4.45;;;;;;;;;;4208829;33;20139;-68
2021/08/29 01:46:51;;;;;;;6.72;3.95;;;;;;;;;;4220451;33;20109;-71
2021/08/29 01:49:17;;;;;;;8.73;4.57;;;;;;;;;;4220486;33;20217;-70
2021/08/29 01:51:43;;;;;;;7.30;4.05;;;;;;;;;;4212977;34;20121;-70
2021/08/29 01:54:09;;;;;;;8.77;4.72;;;;;;;;;;4219481;34;20112;-71
2021/08/29 01:56:59;;;;;;;9.57;4.93;;;;;;;;;;4194795;34;20144;-71
2021/08/29 01:59:25;;;;;;;11.57;4.82;;;;;;;;;;4206480;34;20097;-71
2021/08/29 02:01:51;;;;;;;7.55;5.03;;;;;;;;;;4206268;34;20118;-71
2021/08/29 02:04:17;;;;;;;9.57;5.40;;;;;;;;;;4183609;34;20192;-71
2021/08/29 02:06:46;;;;;;;9.52;5.22;;;;;;;;;;4206087;34;20104;-71
2021/08/29 02:09:12;;;;;;;10.07;5.53;;;;;;;;;;4194986;34;20104;-71
2021/08/29 02:11:40;;;;;;;8.35;4.68;;;;;;;;;;4194511;34;20197;-70
2021/08/29 02:14:09;;;;;;;9.98;5.03;;;;;;;;;;4206184;34;20104;-71
2021/08/29 02:16:36;;;;;;;7.75;4.65;;;;;;;;;;4194370;34;20109;-71
2021/08/29 02:19:02;;;;;;;11.25;4.60;;;;;;;;;;4219314;33;20196;-71
2021/08/29 02:21:28;;;;;;;8.77;4.53;;;;;;;;;;4220275;33;20112;-71
2021/08/29 02:23:54;;;;;;;9.32;4.62;;;;;;;;;;4208462;33;20211;-70
2021/08/29 02:26:23;;;;;;;11.57;4.90;;;;;;;;;;4219982;33;20534;-71
2021/08/29 02:28:48;;;;;;;13.88;4.50;;;;;;;;;;4220026;33;20461;-71
2021/08/29 02:31:17;;;;;;;10.10;4.60;;;;;;;;;;4232808;33;20117;-71
2021/08/29 02:33:43;;;;;;;8.93;5.10;;;;;;;;;;4220044;33;20196;-70
2021/08/29 02:36:09;;;;;;;14.55;5.03;;;;;;;;;;4219832;33;20472;-70
2021/08/29 02:38:35;;;;;;;18.08;5.03;;;;;;;;;;4208315;33;20133;-71
2021/08/29 02:41:01;;;;;;;15.40;8.85;;;;;;;;;;4219668;33;20132;-70
2021/08/29 02:43:27;;;;;;;12.93;6.05;;;;;;;;;;4208148;33;20152;-70
2021/08/29 02:45:52;;;;;;;9.70;6.40;;;;;;;;;;4204969;33;20115;-70
2021/08/29 02:48:18;;;;;;;15.57;6.22;;;;;;;;;;4208501;33;20415;-70
2021/08/29 02:50:47;;;;;;;26.42;13.32;;;;;;;;;;4219662;33;20544;-70
2021/08/29 02:53:17;;;;;;;20.10;11.95;;;;;;;;;;4219658;33;20536;-70
2021/08/29 02:55:45;;;;;;;19.05;11.27;;;;;;;;;;4219547;33;20493;-68
2021/08/29 02:58:11;;;;;;;25.45;9.85;;;;;;;;;;4208663;33;20517;-68
2021/08/29 03:00:37;;;;;;;16.33;9.57;;;;;;;;;;4208019;33;20106;-68
2021/08/29 03:03:03;;;;;;;14.77;7.15;;;;;;;;;;4219564;33;20189;-68
2021/08/29 03:05:30;;;;;;;10.80;6.03;;;;;;;;;;4219640;33;20107;-68
2021/08/29 03:07:56;;;;;;;12.88;5.22;;;;;;;;;;4232442;33;20548;-68
2021/08/29 03:10:22;;;;;;;10.45;4.43;;;;;;;;;;4221036;33;20662;-68
2021/08/29 03:12:48;;;;;;;6.87;4.32;;;;;;;;;;4221616;33;20107;-67
2021/08/29 03:15:14;;;;;;;8.10;4.97;;;;;;;;;;4208711;33;20113;-70
2021/08/29 03:17:40;;;;;;;13.32;6.45;;;;;;;;;;4210117;33;20097;-70
2021/08/29 03:20:07;;;;;;;14.75;6.40;;;;;;;;;;4219453;33;20115;-70
2021/08/29 03:22:35;;;;;;;10.68;5.43;;;;;;;;;;4214043;33;20124;-71
2021/08/29 03:25:01;;;;;;;14.30;5.30;;;;;;;;;;4195914;34;20100;-70
2021/08/29 03:27:27;;;;;;;11.82;5.87;;;;;;;;;;4196152;34;20106;-70
2021/08/29 03:29:52;;;;;;;10.98;5.87;;;;;;;;;;4196008;34;20548;-70
2021/08/29 03:32:19;;;;;;;7.68;5.32;;;;;;;;;;4207544;34;20189;-70
2021/08/29 03:34:46;;;;;;;12.18;5.47;;;;;;;;;;4196126;34;20523;-70
2021/08/29 03:37:12;;;;;;;12.43;5.20;;;;;;;;;;4207697;34;20128;-70
2021/08/29 03:39:38;;;;;;;13.88;5.22;;;;;;;;;;4195914;34;20114;-70
2021/08/29 03:42:04;;;;;;;11.30;4.90;;;;;;;;;;4220476;34;20125;-70
2021/08/29 03:44:30;;;;;;;13.73;5.18;;;;;;;;;;4199348;34;20128;-70
2021/08/29 03:46:56;;;;;;;15.30;5.95;;;;;;;;;;4204873;34;20117;-70
2021/08/29 03:49:23;;;;;;;17.10;6.65;;;;;;;;;;4218629;34;20455;-70
2021/08/29 03:51:49;;;;;;;15.15;7.07;;;;;;;;;;4220165;34;20105;-70
2021/08/29 03:54:15;;;;;;;18.40;8.88;;;;;;;;;;4207240;34;20480;-70
2021/08/29 03:56:41;;;;;;;17.90;9.27;;;;;;;;;;4195544;34;20137;-70
2021/08/29 03:59:07;;;;;;;27.17;10.13;;;;;;;;;;4207517;34;20120;-70
2021/08/29 04:01:33;;;;;;;22.08;8.60;;;;;;;;;;4207154;34;20156;-70
2021/08/29 04:03:59;;;;;;;16.15;7.95;;;;;;;;;;4207736;34;20449;-70
2021/08/29 04:06:25;;;;;;;12.07;5.70;;;;;;;;;;4195901;34;20094;-70
2021/08/29 04:08:54;;;;;;;10.15;4.93;;;;;;;;;;4220386;34;20113;-70
2021/08/29 04:11:26;;;;;;;12.13;5.40;;;;;;;;;;4207284;34;20536;-70
2021/08/29 04:13:52;;;;;;;12.32;5.30;;;;;;;;;;4207161;34;20122;-70
2021/08/29 04:16:18;;;;;;;9.88;4.87;;;;;;;;;;4195517;34;20117;-70
2021/08/29 04:18:45;;;;;;;11.77;5.40;;;;;;;;;;4184215;34;20614;-70
2021/08/29 04:21:17;;;;;;;9.10;4.50;;;;;;;;;;4207157;33;20129;-68
2021/08/29 04:23:43;;;;;;;6.80;4.78;;;;;;;;;;4209861;33;20077;-68
2021/08/29 04:26:10;;;;;;;13.38;4.97;;;;;;;;;;4233920;33;20113;-68
2021/08/29 04:28:36;;;;;;;7.90;4.28;;;;;;;;;;4234112;33;20573;-68
2021/08/29 04:31:06;;;;;;;10.98;5.78;;;;;;;;;;4234265;33;20207;-67
2021/08/29 04:33:32;;;;;;;12.93;6.18;;;;;;;;;;4209821;33;20503;-68
2021/08/29 04:35:58;;;;;;;10.38;5.05;;;;;;;;;;4209527;33;20125;-68
2021/08/29 04:38:24;;;;;;;17.10;5.97;;;;;;;;;;4220896;33;20706;-68
2021/08/29 04:40:50;;;;;;;15.90;6.30;;;;;;;;;;4220806;33;20124;-68
2021/08/29 04:43:16;;;;;;;14.02;5.37;;;;;;;;;;4233936;33;20119;-68
2021/08/29 04:45:42;;;;;;;10.05;5.65;;;;;;;;;;4220941;33;20231;-68
2021/08/29 04:48:08;;;;;;;13.52;5.55;;;;;;;;;;4233901;33;20461;-68
2021/08/29 04:50:34;;;;;;;8.07;5.25;;;;;;;;;;4233825;33;20125;-68
2021/08/29 04:53:00;;;;;;;13.88;5.95;;;;;;;;;;4233676;33;20112;-68
2021/08/29 04:55:25;;;;;;;15.52;5.45;;;;;;;;;;4219957;33;20114;-68
2021/08/29 04:57:51;;;;;;;11.07;5.68;;;;;;;;;;4206746;34;20615;-68
2021/08/29 05:00:17;;;;;;;12.75;6.15;;;;;;;;;;4206769;34;20121;-68
2021/08/29 05:02:43;;;;;;;10.07;4.53;;;;;;;;;;4219599;34;20174;-67
2021/08/29 05:05:09;;;;;;;11.90;5.45;;;;;;;;;;4206728;34;20124;-68
2021/08/29 05:07:35;;;;;;;15.35;6.95;;;;;;;;;;4206737;34;20133;-69
2021/08/29 05:10:01;;;;;;;14.13;5.55;;;;;;;;;;4219620;34;20208;-68
2021/08/29 05:12:27;;;;;;;11.02;5.50;;;;;;;;;;4195245;34;20597;-68
2021/08/29 05:14:53;;;;;;;12.05;5.55;;;;;;;;;;4195224;34;20105;-68
2021/08/29 05:17:19;;;;;;;9.95;4.97;;;;;;;;;;4206348;34;20159;-70
2021/08/29 05:19:45;;;;;;;12.88;4.82;;;;;;;;;;4206558;34;20164;-71
2021/08/29 05:22:11;;;;;;;10.40;5.10;;;;;;;;;;4220609;33;20536;-70
2021/08/29 05:24:37;;;;;;;15.20;5.85;;;;;;;;;;4220383;33;20201;-70
2021/08/29 05:27:03;;;;;;;10.05;5.10;;;;;;;;;;4220324;33;20113;-70
2021/08/29 05:29:29;;;;;;;16.90;5.90;;;;;;;;;;4220526;33;20271;-70
2021/08/29 05:31:54;;;;;;;10.75;5.50;;;;;;;;;;4219965;33;20119;-70
2021/08/29 05:34:20;;;;;;;10.70;5.35;;;;;;;;;;4233205;33;20319;-70
2021/08/29 05:36:46;;;;;;;9.38;5.95;;;;;;;;;;4233275;33;20109;-70
2021/08/29 05:39:12;;;;;;;12.45;6.70;;;;;;;;;;4233444;33;20309;-70
2021/08/29 05:41:38;;;;;;;18.25;6.10;;;;;;;;;;4233309;33;20440;-70
2021/08/29 05:44:04;;;;;;;11.55;5.30;;;;;;;;;;4220546;33;20113;-70
2021/08/29 05:46:30;;;;;;;7.95;4.47;;;;;;;;;;4233350;33;20113;-70
2021/08/29 05:48:56;;;;;;;15.23;5.32;;;;;;;;;;4220308;33;20473;-70
2021/08/29 05:51:22;;;;;;;9.88;4.93;;;;;;;;;;4233218;33;20528;-70
2021/08/29 05:53:48;;;;;;;11.80;5.95;;;;;;;;;;4231842;33;20612;-70
2021/08/29 05:56:14;;;;;;;11.02;5.70;;;;;;;;;;4220182;33;20113;-70
2021/08/29 05:58:40;;;;;;;11.70;5.43;;;;;;;;;;4233214;33;20189;-71
2021/08/29 06:01:05;;;;;;;10.75;6.93;;;;;;;;;;4208553;33;20192;-71
2021/08/29 06:03:31;;;;;;;14.60;5.43;;;;;;;;;;4233257;33;20112;-71
2021/08/29 06:05:58;;;;;;;10.90;5.43;;;;;;;;;;4233369;33;20451;-71
2021/08/29 06:08:24;;;;;;;7.80;4.68;;;;;;;;;;4219986;33;20186;-71
2021/08/29 06:10:50;;;;;;;9.35;6.00;;;;;;;;;;4220317;33;20187;-71
2021/08/29 06:13:15;;;;;;;6.80;4.68;;;;;;;;;;4220303;33;20135;-67
2021/08/29 06:15:41;;;;;;;11.48;5.45;;;;;;;;;;4232823;33;20131;-68
2021/08/29 06:18:07;;;;;;;11.18;5.32;;;;;;;;;;4231706;33;20221;-67
2021/08/29 06:20:33;;;;;;;10.77;5.12;;;;;;;;;;4219920;33;20131;-67
2021/08/29 06:22:59;;;;;;;8.13;3.83;;;;;;;;;;4232875;33;20097;-67
2021/08/29 06:25:25;;;;;;;12.48;5.47;;;;;;;;;;4220225;33;20106;-68
2021/08/29 06:27:51;;;;;;;12.68;5.82;;;;;;;;;;4219741;33;20117;-67
2021/08/29 06:30:17;;;;;;;12.37;5.62;;;;;;;;;;4208648;33;20137;-67
2021/08/29 06:32:43;;;;;;;11.95;5.03;;;;;;;;;;4232753;33;20639;-66
2021/08/29 06:35:09;;;;;;;11.25;3.72;;;;;;;;;;4231413;33;20125;-66
2021/08/29 06:37:35;;;;;;;8.55;3.95;;;;;;;;;;4219565;33;20610;-66
2021/08/29 06:40:01;;;;;;;8.32;4.93;;;;;;;;;;4232873;33;20492;-66
2021/08/29 06:42:27;;;;;;;10.27;3.80;;;;;;;;;;4219998;33;20140;-67
2021/08/29 06:44:53;;;;;;;8.27;4.35;;;;;;;;;;4219763;33;20196;-67
2021/08/29 06:47:19;;;;;;;7.82;3.92;;;;;;;;;;4231681;33;20209;-67
2021/08/29 06:49:45;;;;;;;7.05;4.60;;;;;;;;;;4232964;33;20129;-67
2021/08/29 06:52:11;;;;;;;8.05;3.80;;;;;;;;;;4233012;33;20101;-67
2021/08/29 06:54:37;;;;;;;8.82;4.75;;;;;;;;;;4232682;33;20205;-67
2021/08/29 06:57:03;;;;;;;7.65;4.10;;;;;;;;;;4219625;33;20097;-67
2021/08/29 06:59:29;;;;;;;8.18;4.30;;;;;;;;;;4208418;33;20101;-67
2021/08/29 07:01:55;;;;;;;8.40;3.55;;;;;;;;;;4232574;33;20552;-67
2021/08/29 07:04:21;;;;;;;6.25;4.35;;;;;;;;;;4232804;33;20125;-67
2021/08/29 07:06:47;;;;;;;7.25;5.35;;;;;;;;;;4231182;33;20109;-67
2021/08/29 07:09:13;;;;;;;7.47;3.58;;;;;;;;;;4219538;33;20144;-67
2021/08/29 07:11:38;;;;;;;6.00;3.33;;;;;;;;;;4219632;33;20124;-67
2021/08/29 07:14:05;;;;;;;5.18;4.07;;;;;;;;;;4232320;33;20121;-68
2021/08/29 07:16:31;;;;;;;5.53;3.20;;;;;;;;;;4207466;33;20486;-67
2021/08/29 07:18:57;;;;;;;9.75;4.03;;;;;;;;;;4218814;33;20140;-67
2021/08/29 07:21:23;;;;;;;8.60;5.05;;;;;;;;;;4231700;33;20089;-67
2021/08/29 07:23:49;;;;;;;5.90;4.45;;;;;;;;;;4218969;33;20188;-66
2021/08/29 07:26:15;;;;;;;8.75;4.70;;;;;;;;;;4218806;33;20160;-66
2021/08/29 07:28:42;;;;;;;9.80;5.05;;;;;;;;;;4218723;33;20097;-67
2021/08/29 07:31:08;;;;;;;5.68;4.20;;;;;;;;;;4231567;33;20124;-67
2021/08/29 07:33:34;;;;;;;7.12;4.45;;;;;;;;;;4231646;33;20521;-67
2021/08/29 07:36:00;;;;;;;7.12;5.53;;;;;;;;;;4231620;33;20124;-67
2021/08/29 07:38:26;;;;;;;6.25;4.57;;;;;;;;;;4219028;33;20463;-66
2021/08/29 07:40:52;;;;;;;7.53;3.95;;;;;;;;;;4218667;33;20220;-66
2021/08/29 07:43:18;;;;;;;7.15;4.57;;;;;;;;;;4218761;33;20120;-67
2021/08/29 07:45:44;;;;;;;6.72;4.20;;;;;;;;;;4231600;33;20140;-66
2021/08/29 07:48:10;;;;;;;7.78;4.70;;;;;;;;;;4218664;33;20213;-66
2021/08/29 07:50:36;;;;;;;10.25;4.75;;;;;;;;;;4231304;33;20116;-66
2021/08/29 07:53:02;;;;;;;11.18;4.50;;;;;;;;;;4231342;33;20592;-67
2021/08/29 07:55:28;;;;;;;8.80;4.15;;;;;;;;;;4207303;33;20441;-67
2021/08/29 07:57:54;;;;;;;7.37;4.35;;;;;;;;;;4233355;33;20099;-67
2021/08/29 08:00:20;;;;;;;8.43;4.43;;;;;;;;;;4220216;33;20125;-67
2021/08/29 08:02:46;;;;;;;10.30;4.85;;;;;;;;;;4233522;33;20231;-65
2021/08/29 08:05:12;;;;;;;8.27;4.40;;;;;;;;;;4208862;33;20121;-66
2021/08/29 08:07:38;;;;;;;8.20;3.78;;;;;;;;;;4220110;33;20128;-68
2021/08/29 08:10:05;;;;;;;4.20;2.55;;;;;;;;;;4233153;33;20124;-69
2021/08/29 08:12:31;;;;;;;5.03;3.08;;;;;;;;;;4190833;34;20105;-66
2021/08/29 08:14:57;;;;;;;9.75;4.00;;;;;;;;;;4194823;34;20102;-67
2021/08/29 08:17:23;;;;;;;10.95;3.65;;;;;;;;;;4206606;34;20228;-68
2021/08/29 08:19:49;;;;;;;5.22;3.42;;;;;;;;;;4207001;34;20107;-67
2021/08/29 08:22:15;;;;;;;11.20;3.87;;;;;;;;;;4208378;33;20121;-66
2021/08/29 08:24:41;;;;;;;6.47;3.72;;;;;;;;;;4221014;33;20120;-67
2021/08/29 08:27:07;;;;;;;6.62;3.37;;;;;;;;;;4221333;33;20517;-67
2021/08/29 08:29:33;;;;;;;1.65;1.40;;;;;;;;;;4233939;33;20596;-67
2021/08/29 08:31:59;;;;;;;4.80;3.10;;;;;;;;;;4220822;33;20117;-65
2021/08/29 08:34:25;;;;;;;7.22;3.78;;;;;;;;;;4220705;33;20109;-66
2021/08/29 08:36:51;;;;;;;3.47;2.53;;;;;;;;;;4220860;33;20089;-65
2021/08/29 08:39:17;;;;;;;5.53;3.30;;;;;;;;;;4234128;33;20117;-66
2021/08/29 08:41:44;;;;;;;10.02;4.05;;;;;;;;;;4209044;33;20124;-65
2021/08/29 08:44:11;;;;;;;5.20;3.15;;;;;;;;;;4220852;33;20104;-68
2021/08/29 08:46:38;;;;;;;8.88;3.92;;;;;;;;;;4204139;34;20092;-67
2021/08/29 08:49:04;;;;;;;7.10;4.40;;;;;;;;;;4192802;34;20129;-65
2021/08/29 08:51:31;;;;;;;10.13;3.97;;;;;;;;;;4181683;34;20098;-65
2021/08/29 08:54:00;;;;;;;13.18;3.95;;;;;;;;;;4193205;34;20110;-65
2021/08/29 08:56:25;;;;;;;4.80;2.22;;;;;;;;;;4205959;34;20120;-64
2021/08/29 08:58:59;;;;;;;5.70;2.35;;;;;;;;;;4181431;34;20134;-66
2021/08/29 09:01:24;;;;;;;7.47;4.07;;;;;;;;;;4181687;34;20090;-66
2021/08/29 09:03:50;;;;;;;10.52;4.15;;;;;;;;;;4181539;34;20135;-66
2021/08/29 09:06:16;;;;;;;5.53;2.78;;;;;;;;;;4192891;34;20584;-66
2021/08/29 09:08:42;;;;;;;8.10;4.10;;;;;;;;;;4180759;34;20129;-67
2021/08/29 09:11:08;;;;;;;6.18;4.00;;;;;;;;;;4205888;34;20117;-65
2021/08/29 09:14:00;;;;;;;5.20;2.85;;;;;;;;;;4204598;34;20144;-66
2021/08/29 09:16:27;;;;;;;7.03;3.90;;;;;;;;;;4195436;34;20140;-66
2021/08/29 09:18:55;;;;;;;10.43;4.12;;;;;;;;;;4206530;34;20117;-66
2021/08/29 09:21:28;;;;;;;5.00;3.20;;;;;;;;;;4219693;34;20113;-66
2021/08/29 09:23:55;;;;;;;8.50;4.10;;;;;;;;;;4219451;33;20494;-65
2021/08/29 09:26:22;;;;;;;8.20;3.33;;;;;;;;;;4206667;34;20565;-66
2021/08/29 09:28:49;;;;;;;3.80;2.15;;;;;;;;;;4206823;34;20087;-66
2021/08/29 09:31:15;;;;;;;6.35;3.08;;;;;;;;;;4218196;34;20113;-66
2021/08/29 09:33:41;;;;;;;7.93;4.15;;;;;;;;;;4219262;34;20184;-67
2021/08/29 09:36:10;;;;;;;10.40;4.90;;;;;;;;;;4217898;33;20119;-66
2021/08/29 09:38:41;;;;;;;6.15;3.12;;;;;;;;;;4217898;33;20118;-66
2021/08/29 09:41:26;;;;;;;8.45;4.40;;;;;;;;;;4206371;34;20181;-65
2021/08/29 09:43:51;;;;;;;7.95;4.32;;;;;;;;;;4217983;34;20139;-65
2021/08/29 09:46:20;;;;;;;7.47;4.32;;;;;;;;;;4218787;34;20752;-66
2021/08/29 09:48:47;;;;;;;8.65;4.55;;;;;;;;;;4219373;34;20105;-65
2021/08/29 09:51:15;;;;;;;5.85;3.12;;;;;;;;;;4206634;34;20105;-66
2021/08/29 09:53:42;;;;;;;6.93;3.37;;;;;;;;;;4206412;34;20117;-66
2021/08/29 09:56:21;;;;;;;8.68;4.55;;;;;;;;;;4219034;34;20184;-66
2021/08/29 09:58:48;;;;;;;7.22;4.55;;;;;;;;;;4206600;34;20115;-66
2021/08/29 10:01:15;;;;;;;8.38;3.83;;;;;;;;;;4206269;34;20109;-67
2021/08/29 10:03:48;;;;;;;6.82;4.05;;;;;;;;;;4194885;34;20105;-66
2021/08/29 10:06:22;;;;;;;11.68;4.85;;;;;;;;;;4194880;34;20102;-66
2021/08/29 10:09:00;;;;;;;7.00;3.45;;;;;;;;;;4183565;34;20124;-66
2021/08/29 10:11:28;;;;;;;10.45;4.45;;;;;;;;;;4206174;34;20102;-65
2021/08/29 10:13:55;;;;;;;5.53;3.05;;;;;;;;;;4206111;34;20473;-67
2021/08/29 10:16:25;;;;;;;9.30;4.68;;;;;;;;;;4193393;34;20540;-66
2021/08/29 10:18:52;;;;;;;9.65;4.95;;;;;;;;;;4202118;34;20540;-66
2021/08/29 10:21:20;;;;;;;3.33;2.40;;;;;;;;;;4205801;34;20693;-66
2021/08/29 10:23:47;;;;;;;11.77;4.68;;;;;;;;;;4194913;34;20116;-65
2021/08/29 10:26:14;;;;;;;8.02;4.00;;;;;;;;;;4206369;34;20094;-64
2021/08/29 10:29:05;;;;;;;9.02;5.00;;;;;;;;;;4194975;34;20118;-64
2021/08/29 10:31:36;;;;;;;12.25;4.87;;;;;;;;;;4194277;34;20116;-64
2021/08/29 10:34:02;;;;;;;8.77;4.72;;;;;;;;;;4206313;34;20094;-64
2021/08/29 10:36:28;;;;;;;8.65;4.78;;;;;;;;;;4205834;34;20505;-64
2021/08/29 10:38:54;;;;;;;7.18;4.37;;;;;;;;;;4202650;34;20223;-65
2021/08/29 10:41:21;;;;;;;7.37;4.53;;;;;;;;;;4205913;34;20121;-64
2021/08/29 10:43:48;;;;;;;11.50;4.95;;;;;;;;;;4205962;34;20410;-64
2021/08/29 10:46:14;;;;;;;7.25;4.65;;;;;;;;;;4204582;34;20220;-67
2021/08/29 10:48:46;;;;;;;13.50;4.93;;;;;;;;;;4205923;34;20121;-68
2021/08/29 10:51:20;;;;;;;8.65;4.32;;;;;;;;;;4205945;34;20593;-68
2021/08/29 10:53:51;;;;;;;10.77;4.80;;;;;;;;;;4205697;34;20140;-70
2021/08/29 10:56:17;;;;;;;7.72;4.00;;;;;;;;;;4194442;34;20121;-71
2021/08/29 10:58:46;;;;;;;11.35;4.25;;;;;;;;;;4205797;34;20136;-70
2021/08/29 11:01:44;;;;;;;7.60;4.85;;;;;;;;;;4205257;34;20765;-68
2021/08/29 11:04:22;;;;;;;7.78;3.62;;;;;;;;;;4218877;34;20117;-67
2021/08/29 11:06:55;;;;;;;5.87;3.58;;;;;;;;;;4218483;34;20090;-67
2021/08/29 11:09:37;;;;;;;11.73;4.22;;;;;;;;;;4194121;34;20624;-68
2021/08/29 11:12:04;;;;;;;7.75;3.37;;;;;;;;;;4218235;34;20100;-68
2021/08/29 11:14:51;;;;;;;12.15;5.47;;;;;;;;;;4205931;34;20178;-68
2021/08/29 11:17:34;;;;;;;12.18;5.07;;;;;;;;;;4215784;33;20090;-68
2021/08/29 11:20:03;;;;;;;9.27;4.50;;;;;;;;;;4232689;33;20108;-67
2021/08/29 11:22:42;;;;;;;8.13;4.70;;;;;;;;;;4219196;33;20089;-67
2021/08/29 11:25:19;;;;;;;6.53;3.83;;;;;;;;;;4220504;33;20148;-66
2021/08/29 11:27:52;;;;;;;7.95;3.70;;;;;;;;;;4219512;33;20100;-68
2021/08/29 11:30:19;;;;;;;8.48;4.37;;;;;;;;;;4228244;33;20434;-68
2021/08/29 11:32:51;;;;;;;10.25;4.20;;;;;;;;;;4205446;34;20212;-68
2021/08/29 11:35:24;;;;;;;6.40;3.85;;;;;;;;;;4198473;34;20099;-66
2021/08/29 11:38:25;;;;;;;6.97;3.92;;;;;;;;;;4220431;34;20109;-68
2021/08/29 11:41:12;;;;;;;9.18;5.10;;;;;;;;;;4208084;34;20129;-64
2021/08/29 11:43:42;;;;;;;7.45;4.30;;;;;;;;;;4220555;34;20191;-66
2021/08/29 11:46:10;;;;;;;6.93;3.60;;;;;;;;;;4207288;34;20461;-65
2021/08/29 11:48:38;;;;;;;10.40;4.65;;;;;;;;;;4207678;34;20104;-65
2021/08/29 11:51:04;;;;;;;9.80;5.30;;;;;;;;;;4207550;34;20117;-65
2021/08/29 11:53:51;;;;;;;6.30;4.35;;;;;;;;;;4220431;34;20132;-64
2021/08/29 11:56:20;;;;;;;13.23;5.32;;;;;;;;;;4220395;34;20105;-65
2021/08/29 11:58:47;;;;;;;10.82;4.95;;;;;;;;;;4207777;34;20127;-65
2021/08/29 12:01:13;;;;;;;15.13;5.40;;;;;;;;;;4207236;34;20203;-65
2021/08/29 12:03:39;;;;;;;9.15;5.25;;;;;;;;;;4207303;34;20132;-65
2021/08/29 12:06:11;;;;;;;4.40;3.12;;;;;;;;;;4206311;34;20094;-64
2021/08/29 12:09:14;;;;;;;9.85;5.50;;;;;;;;;;4213905;34;20113;-68
2021/08/29 12:11:40;;;;;;;11.85;5.40;;;;;;;;;;4212847;34;20154;-70
2021/08/29 12:14:11;;;;;;;7.20;4.00;;;;;;;;;;4204947;34;20509;-65
2021/08/29 12:16:37;;;;;;;7.57;4.05;;;;;;;;;;4219595;33;20277;-65
2021/08/29 12:19:09;;;;;;;4.70;3.00;;;;;;;;;;4195606;34;20221;-65
2021/08/29 12:21:35;;;;;;;6.00;3.28;;;;;;;;;;4199813;34;20113;-65
2021/08/29 12:24:01;;;;;;;5.12;3.72;;;;;;;;;;4217288;34;20197;-66
2021/08/29 12:26:29;;;;;;;8.65;4.22;;;;;;;;;;4218137;34;20101;-66
2021/08/29 12:29:00;;;;;;;6.35;3.70;;;;;;;;;;4219854;34;20089;-68
2021/08/29 12:31:26;;;;;;;7.78;3.97;;;;;;;;;;4216050;33;20152;-66
2021/08/29 12:33:52;;;;;;;10.35;3.75;;;;;;;;;;4220842;33;20109;-65
2021/08/29 12:36:18;;;;;;;9.20;4.97;;;;;;;;;;4234167;33;20662;-68
2021/08/29 12:38:54;;;;;;;9.68;4.70;;;;;;;;;;4220868;33;20168;-69
2021/08/29 12:41:20;;;;;;;7.50;3.70;;;;;;;;;;4221262;33;20112;-67
2021/08/29 12:43:46;;;;;;;7.32;4.35;;;;;;;;;;4220816;33;20119;-67
2021/08/29 12:46:12;;;;;;;6.62;4.03;;;;;;;;;;4233795;33;20094;-66
2021/08/29 12:48:38;;;;;;;6.43;3.92;;;;;;;;;;4197588;33;20145;-71
2021/08/29 12:51:06;;;;;;;11.00;5.70;;;;;;;;;;4220542;33;20112;-67
2021/08/29 12:53:31;;;;;;;7.37;4.03;;;;;;;;;;4220885;33;20449;-71
2021/08/29 12:55:57;;;;;;;9.63;3.70;;;;;;;;;;4220391;33;20213;-70
2021/08/29 12:58:25;;;;;;;8.38;4.78;;;;;;;;;;4220658;33;20115;-70
2021/08/29 13:00:56;;;;;;;6.93;3.05;;;;;;;;;;4220724;33;20111;-71
2021/08/29 13:03:23;;;;;;;10.90;3.78;;;;;;;;;;4209252;33;20152;-71
2021/08/29 13:05:49;;;;;;;9.63;3.95;;;;;;;;;;4195232;34;20102;-71
2021/08/29 13:08:16;;;;;;;8.90;4.05;;;;;;;;;;4195473;34;20102;-70
2021/08/29 13:11:02;;;;;;;7.10;4.07;;;;;;;;;;4195343;34;20300;-69
2021/08/29 13:13:36;;;;;;;;;;;;;;;;;;4207194;34;20196;-71
2021/08/29 13:16:03;;;;;;;8.82;4.53;;;;;;;;;;4219230;34;20043;-72
2021/08/29 13:18:29;;;;;;;9.43;5.07;;;;;;;;;;4195468;34;20551;-70
2021/08/29 13:20:55;;;;;;;12.07;4.43;;;;;;;;;;4183869;34;20521;-72
2021/08/29 13:23:34;;;;;;;8.65;5.05;;;;;;;;;;4183775;34;20220;-72
2021/08/29 13:26:00;;;;;;;10.32;4.82;;;;;;;;;;4194985;34;20116;-74
2021/08/29 13:28:27;;;;;;;8.30;5.28;;;;;;;;;;4206603;34;20086;-72
2021/08/29 13:31:24;;;;;;;10.57;6.15;;;;;;;;;;4183711;34;20125;-70
2021/08/29 13:33:58;;;;;;;12.35;5.78;;;;;;;;;;4205129;34;20505;-70
2021/08/29 13:36:24;;;;;;;10.30;7.28;;;;;;;;;;4203861;34;20120;-70
2021/08/29 13:38:50;;;;;;;10.55;5.37;;;;;;;;;;4205406;34;20124;-71
2021/08/29 13:41:16;;;;;;;8.00;5.15;;;;;;;;;;4192519;34;20137;-71
2021/08/29 13:43:42;;;;;;;12.02;5.68;;;;;;;;;;4205409;34;20117;-72
2021/08/29 13:46:13;;;;;;;9.02;5.00;;;;;;;;;;4203910;34;20117;-71
2021/08/29 13:48:39;;;;;;;9.93;6.35;;;;;;;;;;4187751;34;20128;-71
2021/08/29 13:51:06;;;;;;;10.52;6.05;;;;;;;;;;4190232;34;20126;-72
2021/08/29 13:53:33;;;;;;;7.65;5.82;;;;;;;;;;4203350;34;20105;-72
2021/08/29 13:56:00;;;;;;;12.82;5.87;;;;;;;;;;4202985;34;20097;-72
2021/08/29 13:58:26;;;;;;;8.15;5.72;;;;;;;;;;4215219;34;20078;-69
2021/08/29 14:00:54;;;;;;;11.68;6.00;;;;;;;;;;4202616;34;20614;-71
2021/08/29 14:03:20;;;;;;;10.20;5.45;;;;;;;;;;4195061;34;20125;-71
2021/08/29 14:05:46;;;;;;;10.00;5.28;;;;;;;;;;4213551;34;20117;-71
2021/08/29 14:08:12;;;;;;;13.23;5.95;;;;;;;;;;4219352;34;20119;-70
2021/08/29 14:10:38;;;;;;;6.30;3.95;;;;;;;;;;4219022;34;20125;-71
2021/08/29 14:13:04;;;;;;;8.73;5.22;;;;;;;;;;4219234;34;20156;-71
2021/08/29 14:15:30;;;;;;;10.43;5.82;;;;;;;;;;4211925;34;20103;-71
2021/08/29 14:17:56;;;;;;;9.57;5.28;;;;;;;;;;4205842;34;20121;-69
2021/08/29 14:20:22;;;;;;;6.35;3.92;;;;;;;;;;4217575;34;20124;-68
2021/08/29 14:22:49;;;;;;;10.60;6.40;;;;;;;;;;4213680;34;20113;-68
2021/08/29 14:25:15;;;;;;;12.32;4.40;;;;;;;;;;4219104;34;20128;-73
2021/08/29 14:27:52;;;;;;;11.00;5.62;;;;;;;;;;4201367;34;20120;-73
2021/08/29 14:30:18;;;;;;;9.65;5.80;;;;;;;;;;4206567;34;20120;-72
2021/08/29 14:32:46;;;;;;;12.00;5.68;;;;;;;;;;4228745;33;20092;-71
2021/08/29 14:35:15;;;;;;;8.82;5.32;;;;;;;;;;4232742;33;20148;-73
2021/08/29 14:37:41;;;;;;;8.60;5.22;;;;;;;;;;4232777;33;20583;-72
2021/08/29 14:40:08;;;;;;;10.90;5.10;;;;;;;;;;4232778;33;20108;-70
2021/08/29 14:42:34;;;;;;;9.77;5.40;;;;;;;;;;4219631;33;20111;-70
2021/08/29 14:45:00;;;;;;;10.35;5.35;;;;;;;;;;4219620;33;20132;-70
2021/08/29 14:47:25;;;;;;;11.25;5.18;;;;;;;;;;4219619;33;20099;-70
2021/08/29 14:49:51;;;;;;;15.20;6.57;;;;;;;;;;4219609;33;20224;-72
2021/08/29 14:52:17;;;;;;;12.07;6.50;;;;;;;;;;4218318;33;20127;-71
2021/08/29 14:54:43;;;;;;;13.27;6.47;;;;;;;;;;4232606;33;20458;-72
2021/08/29 14:57:09;;;;;;;7.60;6.07;;;;;;;;;;4219573;33;20568;-72